Aeroporto :
LOGIN :

Iscrizione | Disclaimer

   EN    FR    IT 

 










Sommario :    VFR   VFR Marginale   IFR   IFR Intensivo   IFR Molto Intensivo
Visibilità : 
Base nubi : 
>= 8 km
>= 3000ft
5 / 8 km
1000 / 3000 ft
1500m / 5 km
500 / 1000 ft
800 / 1500m
200 / 500 ft
< 800m
< 200 ft
Simboli :   Temporali  Nebbia  Neve Forte  Precipitazioni Forti  Vento > 20 kt
SIGMETs :   Varie  Temporali  Ghiacco  Turbolenza  Onda orograficha  Ceneri Vulcaniche






- Altitudine del aeroporto : 33 ft
- Codice IATA : PLQ


EYPA - Palanga

ULTIMO METAR :
  • 171850Z 23009KT 180V280 CAVOK 07/02 Q1007 R19/0///95

METARs OBSOLETI :
  • 171820Z 23009KT 190V300 CAVOK 07/02 Q1007 R19/0///95
  • 171750Z 23009KT 190V270 CAVOK 07/02 Q1007 R19/0///95
  • 171720Z 24009KT 190V290 CAVOK 07/02 Q1007 R19/0///95
  • 171650Z 25011G22KT 200V310 9999 SCT047 07/02 Q1006 R19/0///95
  • 171620Z 24012G22KT 190V290 CAVOK 07/02 Q1006 R19/0///95

TAF TAF EYPA
Valido dal 17 a 18 ore il 18 a 18 ore UTC


171705Z 1718/1818 22014G24KT 9000 SCT035
BECMG 1804/1806 OVC015
TEMPO 1806/1812 5000 SHRA BKN005 BKN012CB
BECMG 1812/1813 BKN025
TEMPO 1813/1818 SCT010 BKN015CB



MetMap, La meteo Aeronautica in un colpo d'occhio ! - Copyright ORBIFLY Dicembre 2007 - Disclaimer

ORBIFLY MET'MAP TEAM :

Programmazione e sviluppo : Alexandra Zaïnal
Concezione : Baudouin d'Aumeries
Aiuto per la programmazione : Marc-Olivier Méhu
Supporto tecnico e logistico : Manuel Goepfert
Aiuto per la traduzione : Arnaldo La Scala

Contatto : metmap@orbifly.com




FONTI E CREDITI :

   NOAA